sensor_id;sensor_type;location;lat;lon;timestamp;P1;durP1;ratioP1;P2;durP2;ratioP2
7845;SDS011;3968;51.424;6.788;2023-08-06T00:02:19;4.75;;;3.55;;
7845;SDS011;3968;51.424;6.788;2023-08-06T00:04:45;4.95;;;3.92;;
7845;SDS011;3968;51.424;6.788;2023-08-06T00:07:10;6.15;;;3.70;;
7845;SDS011;3968;51.424;6.788;2023-08-06T00:09:36;4.55;;;3.65;;
7845;SDS011;3968;51.424;6.788;2023-08-06T00:12:01;5.22;;;3.80;;
7845;SDS011;3968;51.424;6.788;2023-08-06T00:14:27;5.60;;;3.75;;
7845;SDS011;3968;51.424;6.788;2023-08-06T00:16:53;4.72;;;3.80;;
7845;SDS011;3968;51.424;6.788;2023-08-06T00:19:18;7.07;;;4.25;;
7845;SDS011;3968;51.424;6.788;2023-08-06T00:21:44;5.55;;;3.58;;
7845;SDS011;3968;51.424;6.788;2023-08-06T00:24:10;5.82;;;3.72;;
7845;SDS011;3968;51.424;6.788;2023-08-06T00:26:35;4.15;;;3.50;;
7845;SDS011;3968;51.424;6.788;2023-08-06T00:29:01;4.38;;;3.72;;
7845;SDS011;3968;51.424;6.788;2023-08-06T00:31:26;4.72;;;3.85;;
7845;SDS011;3968;51.424;6.788;2023-08-06T00:33:52;3.92;;;3.53;;
7845;SDS011;3968;51.424;6.788;2023-08-06T00:36:18;4.32;;;3.67;;
7845;SDS011;3968;51.424;6.788;2023-08-06T00:38:43;7.65;;;4.20;;
7845;SDS011;3968;51.424;6.788;2023-08-06T00:41:09;4.22;;;3.78;;
7845;SDS011;3968;51.424;6.788;2023-08-06T00:43:34;4.38;;;3.60;;
7845;SDS011;3968;51.424;6.788;2023-08-06T00:46:00;4.65;;;3.40;;
7845;SDS011;3968;51.424;6.788;2023-08-06T00:48:25;3.80;;;3.40;;
7845;SDS011;3968;51.424;6.788;2023-08-06T00:50:51;4.43;;;3.15;;
7845;SDS011;3968;51.424;6.788;2023-08-06T00:53:17;7.05;;;3.65;;
7845;SDS011;3968;51.424;6.788;2023-08-06T00:55:44;5.88;;;4.00;;
7845;SDS011;3968;51.424;6.788;2023-08-06T00:58:10;8.93;;;3.67;;
7845;SDS011;3968;51.424;6.788;2023-08-06T01:00:37;5.43;;;3.50;;
7845;SDS011;3968;51.424;6.788;2023-08-06T01:03:03;4.03;;;3.72;;
7845;SDS011;3968;51.424;6.788;2023-08-06T01:05:28;3.88;;;3.50;;
7845;SDS011;3968;51.424;6.788;2023-08-06T01:16:08;4.15;;;3.55;;
7845;SDS011;3968;51.424;6.788;2023-08-06T01:18:35;4.63;;;3.65;;
7845;SDS011;3968;51.424;6.788;2023-08-06T01:21:02;4.70;;;3.22;;
7845;SDS011;3968;51.424;6.788;2023-08-06T01:23:28;4.70;;;3.33;;
7845;SDS011;3968;51.424;6.788;2023-08-06T01:29:02;4.72;;;3.38;;
7845;SDS011;3968;51.424;6.788;2023-08-06T01:31:38;8.15;;;3.40;;
7845;SDS011;3968;51.424;6.788;2023-08-06T01:34:07;3.92;;;3.30;;
7845;SDS011;3968;51.424;6.788;2023-08-06T01:36:38;6.68;;;3.65;;
7845;SDS011;3968;51.424;6.788;2023-08-06T01:39:04;4.20;;;3.22;;
7845;SDS011;3968;51.424;6.788;2023-08-06T01:41:30;7.57;;;3.47;;
7845;SDS011;3968;51.424;6.788;2023-08-06T01:43:56;7.72;;;3.80;;
7845;SDS011;3968;51.424;6.788;2023-08-06T01:46:21;3.95;;;3.47;;
7845;SDS011;3968;51.424;6.788;2023-08-06T01:48:47;4.60;;;3.67;;
7845;SDS011;3968;51.424;6.788;2023-08-06T01:51:12;4.13;;;3.13;;
7845;SDS011;3968;51.424;6.788;2023-08-06T01:53:38;3.83;;;3.42;;
7845;SDS011;3968;51.424;6.788;2023-08-06T01:56:04;7.30;;;3.30;;
7845;SDS011;3968;51.424;6.788;2023-08-06T01:58:29;3.88;;;3.58;;
7845;SDS011;3968;51.424;6.788;2023-08-06T02:00:55;3.53;;;3.22;;
7845;SDS011;3968;51.424;6.788;2023-08-06T02:03:20;6.25;;;3.17;;
7845;SDS011;3968;51.424;6.788;2023-08-06T02:05:46;5.90;;;3.47;;
7845;SDS011;3968;51.424;6.788;2023-08-06T02:08:11;5.80;;;2.97;;
7845;SDS011;3968;51.424;6.788;2023-08-06T02:10:37;3.92;;;3.33;;
7845;SDS011;3968;51.424;6.788;2023-08-06T02:13:03;4.55;;;3.35;;
7845;SDS011;3968;51.424;6.788;2023-08-06T02:15:28;5.53;;;3.70;;
7845;SDS011;3968;51.424;6.788;2023-08-06T02:17:55;5.47;;;3.17;;
7845;SDS011;3968;51.424;6.788;2023-08-06T02:20:20;6.63;;;3.50;;
7845;SDS011;3968;51.424;6.788;2023-08-06T02:22:46;4.25;;;3.17;;
7845;SDS011;3968;51.424;6.788;2023-08-06T02:25:11;6.03;;;3.22;;
7845;SDS011;3968;51.424;6.788;2023-08-06T02:27:37;4.57;;;3.25;;
7845;SDS011;3968;51.424;6.788;2023-08-06T02:30:03;5.07;;;3.63;;
7845;SDS011;3968;51.424;6.788;2023-08-06T02:32:29;7.63;;;3.40;;
7845;SDS011;3968;51.424;6.788;2023-08-06T02:34:56;3.20;;;2.78;;
7845;SDS011;3968;51.424;6.788;2023-08-06T02:37:22;5.85;;;3.58;;
7845;SDS011;3968;51.424;6.788;2023-08-06T02:39:47;3.35;;;3.00;;
7845;SDS011;3968;51.424;6.788;2023-08-06T02:42:13;4.43;;;2.92;;
7845;SDS011;3968;51.424;6.788;2023-08-06T02:44:39;5.15;;;3.60;;
7845;SDS011;3968;51.424;6.788;2023-08-06T02:47:04;5.65;;;3.33;;
7845;SDS011;3968;51.424;6.788;2023-08-06T02:49:30;4.35;;;3.10;;
7845;SDS011;3968;51.424;6.788;2023-08-06T02:51:56;5.90;;;3.00;;
7845;SDS011;3968;51.424;6.788;2023-08-06T02:54:21;6.15;;;3.25;;
7845;SDS011;3968;51.424;6.788;2023-08-06T02:56:47;6.85;;;3.05;;
7845;SDS011;3968;51.424;6.788;2023-08-06T02:59:13;4.88;;;3.10;;
7845;SDS011;3968;51.424;6.788;2023-08-06T03:01:38;5.05;;;3.42;;
7845;SDS011;3968;51.424;6.788;2023-08-06T03:04:04;4.05;;;3.10;;
7845;SDS011;3968;51.424;6.788;2023-08-06T03:06:30;3.35;;;3.05;;
7845;SDS011;3968;51.424;6.788;2023-08-06T03:08:56;5.00;;;3.17;;
7845;SDS011;3968;51.424;6.788;2023-08-06T03:11:22;4.78;;;3.15;;
7845;SDS011;3968;51.424;6.788;2023-08-06T03:13:48;3.88;;;3.47;;
7845;SDS011;3968;51.424;6.788;2023-08-06T03:16:13;3.85;;;3.42;;
7845;SDS011;3968;51.424;6.788;2023-08-06T03:18:39;5.65;;;2.97;;
7845;SDS011;3968;51.424;6.788;2023-08-06T03:21:05;5.70;;;3.28;;
7845;SDS011;3968;51.424;6.788;2023-08-06T03:23:30;4.63;;;3.28;;
7845;SDS011;3968;51.424;6.788;2023-08-06T03:25:56;4.50;;;3.35;;
7845;SDS011;3968;51.424;6.788;2023-08-06T03:28:25;3.92;;;3.20;;
7845;SDS011;3968;51.424;6.788;2023-08-06T03:30:58;5.50;;;3.35;;
7845;SDS011;3968;51.424;6.788;2023-08-06T03:33:25;5.20;;;3.38;;
7845;SDS011;3968;51.424;6.788;2023-08-06T03:35:50;4.57;;;2.97;;
7845;SDS011;3968;51.424;6.788;2023-08-06T03:38:16;4.28;;;3.30;;
7845;SDS011;3968;51.424;6.788;2023-08-06T03:40:42;4.85;;;3.47;;
7845;SDS011;3968;51.424;6.788;2023-08-06T03:43:08;4.32;;;3.25;;
7845;SDS011;3968;51.424;6.788;2023-08-06T03:45:33;5.05;;;3.15;;
7845;SDS011;3968;51.424;6.788;2023-08-06T03:47:59;6.07;;;3.10;;
7845;SDS011;3968;51.424;6.788;2023-08-06T03:50:25;8.32;;;3.53;;
7845;SDS011;3968;51.424;6.788;2023-08-06T03:52:50;4.00;;;3.53;;
7845;SDS011;3968;51.424;6.788;2023-08-06T03:55:16;3.95;;;3.20;;
7845;SDS011;3968;51.424;6.788;2023-08-06T03:57:41;4.72;;;3.40;;
7845;SDS011;3968;51.424;6.788;2023-08-06T04:00:07;7.40;;;3.40;;
7845;SDS011;3968;51.424;6.788;2023-08-06T04:02:33;3.45;;;3.03;;
7845;SDS011;3968;51.424;6.788;2023-08-06T04:05:00;7.35;;;3.35;;
7845;SDS011;3968;51.424;6.788;2023-08-06T04:07:26;3.70;;;3.40;;
7845;SDS011;3968;51.424;6.788;2023-08-06T04:09:58;3.75;;;3.25;;
7845;SDS011;3968;51.424;6.788;2023-08-06T04:12:25;5.38;;;3.10;;
7845;SDS011;3968;51.424;6.788;2023-08-06T04:14:51;5.38;;;2.88;;
7845;SDS011;3968;51.424;6.788;2023-08-06T04:17:18;4.00;;;3.33;;
7845;SDS011;3968;51.424;6.788;2023-08-06T04:19:50;7.90;;;3.00;;
7845;SDS011;3968;51.424;6.788;2023-08-06T04:22:17;5.28;;;3.60;;
7845;SDS011;3968;51.424;6.788;2023-08-06T04:24:42;4.38;;;3.40;;
7845;SDS011;3968;51.424;6.788;2023-08-06T04:27:11;5.53;;;3.47;;
7845;SDS011;3968;51.424;6.788;2023-08-06T04:29:38;3.50;;;3.10;;
7845;SDS011;3968;51.424;6.788;2023-08-06T04:32:05;5.05;;;3.17;;
7845;SDS011;3968;51.424;6.788;2023-08-06T04:34:33;7.18;;;3.53;;
7845;SDS011;3968;51.424;6.788;2023-08-06T04:36:59;3.75;;;2.95;;
7845;SDS011;3968;51.424;6.788;2023-08-06T04:39:25;5.82;;;3.10;;
7845;SDS011;3968;51.424;6.788;2023-08-06T04:41:51;3.88;;;3.38;;
7845;SDS011;3968;51.424;6.788;2023-08-06T04:44:16;4.00;;;2.95;;
7845;SDS011;3968;51.424;6.788;2023-08-06T04:46:42;3.80;;;3.00;;
7845;SDS011;3968;51.424;6.788;2023-08-06T04:49:08;4.47;;;3.00;;
7845;SDS011;3968;51.424;6.788;2023-08-06T04:51:33;4.40;;;3.53;;
7845;SDS011;3968;51.424;6.788;2023-08-06T04:53:59;4.15;;;3.38;;
7845;SDS011;3968;51.424;6.788;2023-08-06T04:56:24;4.90;;;3.35;;
7845;SDS011;3968;51.424;6.788;2023-08-06T04:58:50;3.70;;;3.30;;
7845;SDS011;3968;51.424;6.788;2023-08-06T05:01:16;7.10;;;3.67;;
7845;SDS011;3968;51.424;6.788;2023-08-06T05:03:42;4.18;;;3.25;;
7845;SDS011;3968;51.424;6.788;2023-08-06T05:06:07;7.70;;;3.95;;
7845;SDS011;3968;51.424;6.788;2023-08-06T05:08:33;3.60;;;3.30;;
7845;SDS011;3968;51.424;6.788;2023-08-06T05:10:58;3.53;;;3.15;;
7845;SDS011;3968;51.424;6.788;2023-08-06T05:13:24;3.85;;;3.28;;
7845;SDS011;3968;51.424;6.788;2023-08-06T05:15:50;5.13;;;3.08;;
7845;SDS011;3968;51.424;6.788;2023-08-06T05:18:18;6.18;;;3.13;;
7845;SDS011;3968;51.424;6.788;2023-08-06T05:20:43;3.88;;;3.45;;
7845;SDS011;3968;51.424;6.788;2023-08-06T05:23:09;3.88;;;3.33;;
7845;SDS011;3968;51.424;6.788;2023-08-06T05:25:35;5.88;;;3.67;;
7845;SDS011;3968;51.424;6.788;2023-08-06T05:28:01;4.53;;;3.55;;
7845;SDS011;3968;51.424;6.788;2023-08-06T05:30:27;6.68;;;3.53;;
7845;SDS011;3968;51.424;6.788;2023-08-06T05:32:53;3.97;;;3.53;;
7845;SDS011;3968;51.424;6.788;2023-08-06T05:35:18;6.80;;;3.67;;
7845;SDS011;3968;51.424;6.788;2023-08-06T05:37:44;3.60;;;3.30;;
7845;SDS011;3968;51.424;6.788;2023-08-06T05:40:09;5.43;;;3.47;;
7845;SDS011;3968;51.424;6.788;2023-08-06T05:42:35;4.00;;;3.50;;
7845;SDS011;3968;51.424;6.788;2023-08-06T05:45:01;4.45;;;3.33;;
7845;SDS011;3968;51.424;6.788;2023-08-06T05:47:26;3.55;;;3.17;;
7845;SDS011;3968;51.424;6.788;2023-08-06T05:49:52;4.15;;;3.05;;
7845;SDS011;3968;51.424;6.788;2023-08-06T05:52:17;5.07;;;3.17;;
7845;SDS011;3968;51.424;6.788;2023-08-06T05:54:43;3.58;;;3.00;;
7845;SDS011;3968;51.424;6.788;2023-08-06T05:57:09;6.22;;;3.13;;
7845;SDS011;3968;51.424;6.788;2023-08-06T05:59:34;6.68;;;3.40;;
7845;SDS011;3968;51.424;6.788;2023-08-06T06:02:00;7.40;;;3.00;;
7845;SDS011;3968;51.424;6.788;2023-08-06T06:04:25;4.07;;;3.10;;
7845;SDS011;3968;51.424;6.788;2023-08-06T06:06:51;4.20;;;3.00;;
7845;SDS011;3968;51.424;6.788;2023-08-06T06:09:17;3.88;;;3.13;;
7845;SDS011;3968;51.424;6.788;2023-08-06T06:11:42;5.10;;;3.38;;
7845;SDS011;3968;51.424;6.788;2023-08-06T06:14:08;4.75;;;3.05;;
7845;SDS011;3968;51.424;6.788;2023-08-06T06:16:34;3.20;;;2.90;;
7845;SDS011;3968;51.424;6.788;2023-08-06T06:18:59;5.30;;;2.85;;
7845;SDS011;3968;51.424;6.788;2023-08-06T06:21:25;7.80;;;2.95;;
7845;SDS011;3968;51.424;6.788;2023-08-06T06:23:50;4.75;;;2.80;;
7845;SDS011;3968;51.424;6.788;2023-08-06T06:26:16;5.60;;;2.70;;
7845;SDS011;3968;51.424;6.788;2023-08-06T06:28:43;3.03;;;2.72;;
7845;SDS011;3968;51.424;6.788;2023-08-06T06:31:08;4.47;;;2.40;;
7845;SDS011;3968;51.424;6.788;2023-08-06T06:33:34;3.33;;;2.80;;
7845;SDS011;3968;51.424;6.788;2023-08-06T06:36:00;4.07;;;2.72;;
7845;SDS011;3968;51.424;6.788;2023-08-06T06:38:28;4.65;;;2.72;;
7845;SDS011;3968;51.424;6.788;2023-08-06T06:40:56;4.15;;;2.95;;
7845;SDS011;3968;51.424;6.788;2023-08-06T06:43:22;3.10;;;2.30;;
7845;SDS011;3968;51.424;6.788;2023-08-06T06:46:00;4.68;;;2.92;;
7845;SDS011;3968;51.424;6.788;2023-08-06T06:48:27;4.85;;;2.53;;
7845;SDS011;3968;51.424;6.788;2023-08-06T06:50:54;2.97;;;2.42;;
7845;SDS011;3968;51.424;6.788;2023-08-06T06:53:20;2.92;;;2.42;;
7845;SDS011;3968;51.424;6.788;2023-08-06T06:55:48;3.67;;;2.95;;
7845;SDS011;3968;51.424;6.788;2023-08-06T06:58:14;3.38;;;2.80;;
7845;SDS011;3968;51.424;6.788;2023-08-06T07:00:41;5.05;;;3.20;;
7845;SDS011;3968;51.424;6.788;2023-08-06T07:03:07;5.45;;;3.10;;
7845;SDS011;3968;51.424;6.788;2023-08-06T07:05:32;6.00;;;3.03;;
7845;SDS011;3968;51.424;6.788;2023-08-06T07:07:58;4.00;;;3.15;;
7845;SDS011;3968;51.424;6.788;2023-08-06T07:10:24;3.42;;;2.80;;
7845;SDS011;3968;51.424;6.788;2023-08-06T07:12:50;3.03;;;2.72;;
7845;SDS011;3968;51.424;6.788;2023-08-06T07:15:16;4.18;;;3.15;;
7845;SDS011;3968;51.424;6.788;2023-08-06T07:17:42;3.22;;;2.92;;
7845;SDS011;3968;51.424;6.788;2023-08-06T07:20:09;4.32;;;2.80;;
7845;SDS011;3968;51.424;6.788;2023-08-06T07:22:34;3.22;;;2.92;;
7845;SDS011;3968;51.424;6.788;2023-08-06T07:25:00;5.07;;;2.92;;
7845;SDS011;3968;51.424;6.788;2023-08-06T07:27:26;4.13;;;3.38;;
7845;SDS011;3968;51.424;6.788;2023-08-06T07:29:52;6.60;;;3.55;;
7845;SDS011;3968;51.424;6.788;2023-08-06T07:32:18;4.22;;;3.15;;
7845;SDS011;3968;51.424;6.788;2023-08-06T07:34:43;5.35;;;3.40;;
7845;SDS011;3968;51.424;6.788;2023-08-06T07:37:09;4.53;;;3.42;;
7845;SDS011;3968;51.424;6.788;2023-08-06T07:39:34;4.93;;;3.40;;
7845;SDS011;3968;51.424;6.788;2023-08-06T07:42:02;3.50;;;3.20;;
7845;SDS011;3968;51.424;6.788;2023-08-06T07:44:30;5.00;;;3.88;;
7845;SDS011;3968;51.424;6.788;2023-08-06T07:46:56;5.30;;;3.92;;
7845;SDS011;3968;51.424;6.788;2023-08-06T07:49:22;4.88;;;3.88;;
7845;SDS011;3968;51.424;6.788;2023-08-06T07:51:47;9.20;;;3.40;;
7845;SDS011;3968;51.424;6.788;2023-08-06T07:54:13;3.58;;;3.28;;
7845;SDS011;3968;51.424;6.788;2023-08-06T07:56:38;4.00;;;3.50;;
7845;SDS011;3968;51.424;6.788;2023-08-06T07:59:04;3.30;;;3.00;;
7845;SDS011;3968;51.424;6.788;2023-08-06T08:01:29;4.22;;;3.22;;
7845;SDS011;3968;51.424;6.788;2023-08-06T08:03:55;3.33;;;3.03;;
7845;SDS011;3968;51.424;6.788;2023-08-06T08:06:20;4.22;;;3.85;;
7845;SDS011;3968;51.424;6.788;2023-08-06T08:08:47;10.35;;;5.50;;
7845;SDS011;3968;51.424;6.788;2023-08-06T08:11:12;7.70;;;5.10;;
7845;SDS011;3968;51.424;6.788;2023-08-06T08:13:39;10.68;;;6.35;;
7845;SDS011;3968;51.424;6.788;2023-08-06T08:16:04;7.15;;;6.47;;
7845;SDS011;3968;51.424;6.788;2023-08-06T08:18:30;7.65;;;6.63;;
7845;SDS011;3968;51.424;6.788;2023-08-06T08:20:56;6.85;;;5.55;;
7845;SDS011;3968;51.424;6.788;2023-08-06T08:23:22;6.25;;;4.60;;
7845;SDS011;3968;51.424;6.788;2023-08-06T08:25:47;7.20;;;5.32;;
7845;SDS011;3968;51.424;6.788;2023-08-06T08:28:13;8.88;;;4.80;;
7845;SDS011;3968;51.424;6.788;2023-08-06T08:30:40;10.27;;;5.35;;
7845;SDS011;3968;51.424;6.788;2023-08-06T08:33:06;6.60;;;4.78;;
7845;SDS011;3968;51.424;6.788;2023-08-06T08:35:32;7.95;;;4.45;;
7845;SDS011;3968;51.424;6.788;2023-08-06T08:37:59;8.20;;;4.70;;
7845;SDS011;3968;51.424;6.788;2023-08-06T08:40:26;6.25;;;4.00;;
7845;SDS011;3968;51.424;6.788;2023-08-06T08:42:56;4.38;;;3.72;;
7845;SDS011;3968;51.424;6.788;2023-08-06T08:45:23;5.40;;;3.50;;
7845;SDS011;3968;51.424;6.788;2023-08-06T08:47:53;3.78;;;3.47;;
7845;SDS011;3968;51.424;6.788;2023-08-06T08:50:18;7.88;;;4.07;;
7845;SDS011;3968;51.424;6.788;2023-08-06T08:52:45;6.28;;;3.75;;
7845;SDS011;3968;51.424;6.788;2023-08-06T08:55:11;5.82;;;4.20;;
7845;SDS011;3968;51.424;6.788;2023-08-06T08:57:39;5.95;;;3.75;;
7845;SDS011;3968;51.424;6.788;2023-08-06T09:00:04;5.65;;;3.80;;
7845;SDS011;3968;51.424;6.788;2023-08-06T09:02:31;5.28;;;3.85;;
7845;SDS011;3968;51.424;6.788;2023-08-06T09:04:58;4.22;;;3.80;;
7845;SDS011;3968;51.424;6.788;2023-08-06T09:07:27;60.15;;;45.60;;
7845;SDS011;3968;51.424;6.788;2023-08-06T09:10:01;72.90;;;54.78;;
7845;SDS011;3968;51.424;6.788;2023-08-06T09:12:31;39.78;;;28.92;;
7845;SDS011;3968;51.424;6.788;2023-08-06T09:14:57;49.17;;;35.53;;
7845;SDS011;3968;51.424;6.788;2023-08-06T09:17:23;58.28;;;43.92;;
7845;SDS011;3968;51.424;6.788;2023-08-06T09:19:49;39.67;;;29.40;;
7845;SDS011;3968;51.424;6.788;2023-08-06T09:22:14;85.07;;;66.32;;
7845;SDS011;3968;51.424;6.788;2023-08-06T09:24:40;117.25;;;86.60;;
7845;SDS011;3968;51.424;6.788;2023-08-06T09:27:13;233.20;;;142.25;;
7845;SDS011;3968;51.424;6.788;2023-08-06T09:29:43;122.88;;;90.68;;
7845;SDS011;3968;51.424;6.788;2023-08-06T09:32:10;73.60;;;55.15;;
7845;SDS011;3968;51.424;6.788;2023-08-06T09:34:38;38.60;;;28.20;;
7845;SDS011;3968;51.424;6.788;2023-08-06T09:37:05;40.05;;;30.15;;
7845;SDS011;3968;51.424;6.788;2023-08-06T09:39:31;38.05;;;26.05;;
7845;SDS011;3968;51.424;6.788;2023-08-06T09:41:57;26.33;;;20.65;;
7845;SDS011;3968;51.424;6.788;2023-08-06T09:44:24;17.88;;;13.50;;
7845;SDS011;3968;51.424;6.788;2023-08-06T09:46:52;11.43;;;8.48;;
7845;SDS011;3968;51.424;6.788;2023-08-06T09:49:20;11.13;;;8.13;;
7845;SDS011;3968;51.424;6.788;2023-08-06T09:51:50;9.35;;;7.43;;
7845;SDS011;3968;51.424;6.788;2023-08-06T09:54:17;8.30;;;6.40;;
7845;SDS011;3968;51.424;6.788;2023-08-06T09:56:44;10.40;;;7.30;;
7845;SDS011;3968;51.424;6.788;2023-08-06T09:59:10;7.38;;;5.75;;
7845;SDS011;3968;51.424;6.788;2023-08-06T10:01:38;10.27;;;5.70;;
7845;SDS011;3968;51.424;6.788;2023-08-06T10:04:04;10.55;;;5.65;;
7845;SDS011;3968;51.424;6.788;2023-08-06T10:06:33;8.88;;;4.75;;
7845;SDS011;3968;51.424;6.788;2023-08-06T10:09:02;7.30;;;5.13;;
7845;SDS011;3968;51.424;6.788;2023-08-06T10:11:29;6.90;;;6.10;;
7845;SDS011;3968;51.424;6.788;2023-08-06T10:13:58;8.40;;;5.55;;
7845;SDS011;3968;51.424;6.788;2023-08-06T10:16:29;7.38;;;5.70;;
7845;SDS011;3968;51.424;6.788;2023-08-06T10:18:55;7.38;;;5.97;;
7845;SDS011;3968;51.424;6.788;2023-08-06T10:21:23;30.38;;;24.38;;
7845;SDS011;3968;51.424;6.788;2023-08-06T10:23:53;7.70;;;6.75;;
7845;SDS011;3968;51.424;6.788;2023-08-06T10:26:19;9.52;;;6.90;;
7845;SDS011;3968;51.424;6.788;2023-08-06T10:28:45;7.20;;;5.57;;
7845;SDS011;3968;51.424;6.788;2023-08-06T10:31:11;6.32;;;5.70;;
7845;SDS011;3968;51.424;6.788;2023-08-06T10:33:43;6.63;;;6.10;;
7845;SDS011;3968;51.424;6.788;2023-08-06T10:36:13;62.17;;;48.58;;
7845;SDS011;3968;51.424;6.788;2023-08-06T10:38:46;117.50;;;87.60;;
7845;SDS011;3968;51.424;6.788;2023-08-06T10:41:28;72.63;;;54.85;;
7845;SDS011;3968;51.424;6.788;2023-08-06T10:44:07;74.90;;;52.83;;
7845;SDS011;3968;51.424;6.788;2023-08-06T10:46:36;12.55;;;11.05;;
7845;SDS011;3968;51.424;6.788;2023-08-06T10:49:03;7.50;;;6.72;;
7845;SDS011;3968;51.424;6.788;2023-08-06T10:51:29;4.35;;;3.75;;
7845;SDS011;3968;51.424;6.788;2023-08-06T10:53:56;6.35;;;3.55;;
7845;SDS011;3968;51.424;6.788;2023-08-06T10:56:23;3.55;;;2.47;;
7845;SDS011;3968;51.424;6.788;2023-08-06T10:58:55;2.47;;;2.20;;
7845;SDS011;3968;51.424;6.788;2023-08-06T11:01:22;3.05;;;2.60;;
7845;SDS011;3968;51.424;6.788;2023-08-06T11:03:49;1.98;;;1.77;;
7845;SDS011;3968;51.424;6.788;2023-08-06T11:06:22;2.15;;;1.95;;
7845;SDS011;3968;51.424;6.788;2023-08-06T11:08:56;2.15;;;2.03;;
7845;SDS011;3968;51.424;6.788;2023-08-06T11:11:22;3.70;;;2.05;;
7845;SDS011;3968;51.424;6.788;2023-08-06T11:13:51;2.00;;;1.80;;
7845;SDS011;3968;51.424;6.788;2023-08-06T11:16:18;1.70;;;1.58;;
7845;SDS011;3968;51.424;6.788;2023-08-06T11:18:44;2.03;;;1.55;;
7845;SDS011;3968;51.424;6.788;2023-08-06T11:21:10;2.42;;;1.42;;
7845;SDS011;3968;51.424;6.788;2023-08-06T11:23:40;2.72;;;1.90;;
7845;SDS011;3968;51.424;6.788;2023-08-06T11:26:06;1.48;;;1.30;;
7845;SDS011;3968;51.424;6.788;2023-08-06T11:28:32;23.52;;;15.88;;
7845;SDS011;3968;51.424;6.788;2023-08-06T11:30:58;1.83;;;1.67;;
7845;SDS011;3968;51.424;6.788;2023-08-06T11:33:27;2.40;;;1.92;;
7845;SDS011;3968;51.424;6.788;2023-08-06T11:35:57;2.80;;;2.40;;
7845;SDS011;3968;51.424;6.788;2023-08-06T11:38:25;2.25;;;1.95;;
7845;SDS011;3968;51.424;6.788;2023-08-06T11:40:52;3.08;;;2.10;;
7845;SDS011;3968;51.424;6.788;2023-08-06T11:43:18;2.90;;;2.60;;
7845;SDS011;3968;51.424;6.788;2023-08-06T11:45:45;2.60;;;2.28;;
7845;SDS011;3968;51.424;6.788;2023-08-06T11:48:12;2.55;;;2.00;;
7845;SDS011;3968;51.424;6.788;2023-08-06T11:50:37;3.50;;;2.20;;
7845;SDS011;3968;51.424;6.788;2023-08-06T11:53:06;2.17;;;1.83;;
7845;SDS011;3968;51.424;6.788;2023-08-06T11:55:32;2.90;;;2.17;;
7845;SDS011;3968;51.424;6.788;2023-08-06T11:57:58;1.88;;;1.73;;
7845;SDS011;3968;51.424;6.788;2023-08-06T12:00:28;1.67;;;1.33;;
7845;SDS011;3968;51.424;6.788;2023-08-06T12:02:54;3.05;;;2.17;;
7845;SDS011;3968;51.424;6.788;2023-08-06T12:05:22;3.20;;;1.42;;
7845;SDS011;3968;51.424;6.788;2023-08-06T12:07:52;4.50;;;2.42;;
7845;SDS011;3968;51.424;6.788;2023-08-06T12:10:21;1.63;;;1.52;;
7845;SDS011;3968;51.424;6.788;2023-08-06T12:12:47;2.28;;;1.52;;
7845;SDS011;3968;51.424;6.788;2023-08-06T12:15:13;2.63;;;1.45;;
7845;SDS011;3968;51.424;6.788;2023-08-06T12:17:39;2.05;;;1.85;;
7845;SDS011;3968;51.424;6.788;2023-08-06T12:20:05;1.45;;;1.35;;
7845;SDS011;3968;51.424;6.788;2023-08-06T12:22:32;1.88;;;1.50;;
7845;SDS011;3968;51.424;6.788;2023-08-06T12:25:03;1.27;;;1.17;;
7845;SDS011;3968;51.424;6.788;2023-08-06T12:27:32;2.38;;;1.58;;
7845;SDS011;3968;51.424;6.788;2023-08-06T12:30:06;1.98;;;1.67;;
7845;SDS011;3968;51.424;6.788;2023-08-06T12:32:32;1.70;;;1.60;;
7845;SDS011;3968;51.424;6.788;2023-08-06T12:34:58;1.95;;;1.80;;
7845;SDS011;3968;51.424;6.788;2023-08-06T12:37:25;2.10;;;1.90;;
7845;SDS011;3968;51.424;6.788;2023-08-06T12:39:51;2.53;;;2.08;;
7845;SDS011;3968;51.424;6.788;2023-08-06T12:42:16;2.13;;;1.77;;
7845;SDS011;3968;51.424;6.788;2023-08-06T12:44:42;2.20;;;2.00;;
7845;SDS011;3968;51.424;6.788;2023-08-06T12:47:08;2.38;;;2.17;;
7845;SDS011;3968;51.424;6.788;2023-08-06T12:49:34;2.78;;;2.33;;
7845;SDS011;3968;51.424;6.788;2023-08-06T12:51:59;2.53;;;2.33;;
7845;SDS011;3968;51.424;6.788;2023-08-06T12:54:26;2.45;;;2.20;;
7845;SDS011;3968;51.424;6.788;2023-08-06T12:56:52;2.42;;;2.03;;
7845;SDS011;3968;51.424;6.788;2023-08-06T12:59:18;2.72;;;2.50;;
7845;SDS011;3968;51.424;6.788;2023-08-06T13:01:44;2.88;;;2.60;;
7845;SDS011;3968;51.424;6.788;2023-08-06T13:04:10;2.70;;;2.50;;
7845;SDS011;3968;51.424;6.788;2023-08-06T13:06:36;2.50;;;2.30;;
7845;SDS011;3968;51.424;6.788;2023-08-06T13:09:03;3.55;;;2.40;;
7845;SDS011;3968;51.424;6.788;2023-08-06T13:11:30;4.10;;;2.90;;
7845;SDS011;3968;51.424;6.788;2023-08-06T13:14:03;3.67;;;3.08;;
7845;SDS011;3968;51.424;6.788;2023-08-06T13:16:31;4.30;;;3.20;;
7845;SDS011;3968;51.424;6.788;2023-08-06T13:18:57;4.20;;;3.20;;
7845;SDS011;3968;51.424;6.788;2023-08-06T13:21:22;4.38;;;3.30;;
7845;SDS011;3968;51.424;6.788;2023-08-06T13:23:48;4.90;;;3.10;;
7845;SDS011;3968;51.424;6.788;2023-08-06T13:26:13;5.38;;;3.17;;
7845;SDS011;3968;51.424;6.788;2023-08-06T13:28:40;4.07;;;2.97;;
7845;SDS011;3968;51.424;6.788;2023-08-06T13:31:06;5.93;;;3.72;;
7845;SDS011;3968;51.424;6.788;2023-08-06T13:33:32;5.10;;;3.33;;
7845;SDS011;3968;51.424;6.788;2023-08-06T13:35:58;4.22;;;3.30;;
7845;SDS011;3968;51.424;6.788;2023-08-06T13:38:23;4.63;;;3.38;;
7845;SDS011;3968;51.424;6.788;2023-08-06T13:40:49;5.13;;;3.40;;
7845;SDS011;3968;51.424;6.788;2023-08-06T13:43:15;3.72;;;3.05;;
7845;SDS011;3968;51.424;6.788;2023-08-06T13:45:42;6.50;;;2.92;;
7845;SDS011;3968;51.424;6.788;2023-08-06T13:48:07;119.38;;;85.53;;
7845;SDS011;3968;51.424;6.788;2023-08-06T13:50:35;125.20;;;88.53;;
7845;SDS011;3968;51.424;6.788;2023-08-06T13:53:01;39.50;;;29.30;;
7845;SDS011;3968;51.424;6.788;2023-08-06T13:55:27;3.85;;;3.33;;
7845;SDS011;3968;51.424;6.788;2023-08-06T13:57:53;3.95;;;2.63;;
7845;SDS011;3968;51.424;6.788;2023-08-06T14:00:18;3.00;;;2.60;;
7845;SDS011;3968;51.424;6.788;2023-08-06T14:02:44;3.90;;;2.88;;
7845;SDS011;3968;51.424;6.788;2023-08-06T14:05:09;3.85;;;2.60;;
7845;SDS011;3968;51.424;6.788;2023-08-06T14:07:35;3.28;;;2.80;;
7845;SDS011;3968;51.424;6.788;2023-08-06T14:10:01;3.80;;;2.85;;
7845;SDS011;3968;51.424;6.788;2023-08-06T14:12:26;3.45;;;3.00;;
7845;SDS011;3968;51.424;6.788;2023-08-06T14:14:52;2.63;;;2.40;;
7845;SDS011;3968;51.424;6.788;2023-08-06T14:17:18;3.70;;;2.38;;
7845;SDS011;3968;51.424;6.788;2023-08-06T14:19:43;3.22;;;2.30;;
7845;SDS011;3968;51.424;6.788;2023-08-06T14:22:09;4.00;;;2.33;;
7845;SDS011;3968;51.424;6.788;2023-08-06T14:24:34;3.35;;;2.75;;
7845;SDS011;3968;51.424;6.788;2023-08-06T14:27:00;2.92;;;2.15;;
7845;SDS011;3968;51.424;6.788;2023-08-06T14:29:25;2.75;;;2.55;;
7845;SDS011;3968;51.424;6.788;2023-08-06T14:31:51;2.47;;;2.20;;
7845;SDS011;3968;51.424;6.788;2023-08-06T14:34:17;2.38;;;2.17;;
7845;SDS011;3968;51.424;6.788;2023-08-06T14:36:42;2.92;;;2.30;;
7845;SDS011;3968;51.424;6.788;2023-08-06T14:39:08;3.22;;;2.25;;
7845;SDS011;3968;51.424;6.788;2023-08-06T14:41:33;3.35;;;2.40;;
7845;SDS011;3968;51.424;6.788;2023-08-06T14:43:59;3.15;;;1.98;;
7845;SDS011;3968;51.424;6.788;2023-08-06T14:46:25;3.25;;;2.10;;
7845;SDS011;3968;51.424;6.788;2023-08-06T14:48:50;2.35;;;2.15;;
7845;SDS011;3968;51.424;6.788;2023-08-06T14:51:16;2.35;;;2.15;;
7845;SDS011;3968;51.424;6.788;2023-08-06T14:53:44;3.03;;;1.98;;
7845;SDS011;3968;51.424;6.788;2023-08-06T14:56:10;52.08;;;38.17;;
7845;SDS011;3968;51.424;6.788;2023-08-06T14:58:35;95.93;;;69.43;;
7845;SDS011;3968;51.424;6.788;2023-08-06T15:01:01;2.63;;;2.03;;
7845;SDS011;3968;51.424;6.788;2023-08-06T15:03:27;2.10;;;1.85;;
7845;SDS011;3968;51.424;6.788;2023-08-06T15:05:53;3.17;;;2.00;;
7845;SDS011;3968;51.424;6.788;2023-08-06T15:08:19;2.92;;;2.20;;
7845;SDS011;3968;51.424;6.788;2023-08-06T15:10:56;2.20;;;1.85;;
7845;SDS011;3968;51.424;6.788;2023-08-06T15:13:21;3.80;;;2.08;;
7845;SDS011;3968;51.424;6.788;2023-08-06T15:15:47;37.53;;;26.73;;
7845;SDS011;3968;51.424;6.788;2023-08-06T15:18:16;23.20;;;16.50;;
7845;SDS011;3968;51.424;6.788;2023-08-06T15:20:42;5.72;;;3.22;;